sensor_id;sensor_type;location;lat;lon;timestamp;P1;durP1;ratioP1;P2;durP2;ratioP2
77085;SDS011;66014;53.134;18.006;2023-11-18T00:02:17;21.50;;;12.00;;
77085;SDS011;66014;53.134;18.006;2023-11-18T00:04:43;21.00;;;12.00;;
77085;SDS011;66014;53.134;18.006;2023-11-18T00:07:09;25.20;;;13.60;;
77085;SDS011;66014;53.134;18.006;2023-11-18T00:09:35;24.20;;;12.20;;
77085;SDS011;66014;53.134;18.006;2023-11-18T00:12:02;21.10;;;12.00;;
77085;SDS011;66014;53.134;18.006;2023-11-18T00:14:29;25.00;;;12.40;;
77085;SDS011;66014;53.134;18.006;2023-11-18T00:16:55;23.80;;;12.50;;
77085;SDS011;66014;53.134;18.006;2023-11-18T00:19:24;27.10;;;13.40;;
77085;SDS011;66014;53.134;18.006;2023-11-18T00:21:50;27.30;;;13.20;;
77085;SDS011;66014;53.134;18.006;2023-11-18T00:24:16;26.90;;;12.30;;
77085;SDS011;66014;53.134;18.006;2023-11-18T00:26:42;23.80;;;11.80;;
77085;SDS011;66014;53.134;18.006;2023-11-18T00:29:08;24.60;;;12.20;;
77085;SDS011;66014;53.134;18.006;2023-11-18T00:31:34;24.70;;;12.30;;
77085;SDS011;66014;53.134;18.006;2023-11-18T00:34:00;26.70;;;12.30;;
77085;SDS011;66014;53.134;18.006;2023-11-18T00:36:28;23.20;;;11.50;;
77085;SDS011;66014;53.134;18.006;2023-11-18T00:38:55;21.70;;;11.70;;
77085;SDS011;66014;53.134;18.006;2023-11-18T00:41:21;25.00;;;12.40;;
77085;SDS011;66014;53.134;18.006;2023-11-18T00:43:47;25.30;;;11.50;;
77085;SDS011;66014;53.134;18.006;2023-11-18T00:46:13;23.60;;;11.90;;
77085;SDS011;66014;53.134;18.006;2023-11-18T00:51:30;27.50;;;12.30;;
77085;SDS011;66014;53.134;18.006;2023-11-18T00:54:04;27.30;;;12.70;;
77085;SDS011;66014;53.134;18.006;2023-11-18T00:56:33;25.70;;;12.30;;
77085;SDS011;66014;53.134;18.006;2023-11-18T00:59:00;25.60;;;12.20;;
77085;SDS011;66014;53.134;18.006;2023-11-18T01:01:29;27.60;;;12.40;;
77085;SDS011;66014;53.134;18.006;2023-11-18T01:03:55;25.10;;;12.70;;
77085;SDS011;66014;53.134;18.006;2023-11-18T01:06:27;26.80;;;13.00;;
77085;SDS011;66014;53.134;18.006;2023-11-18T01:08:53;25.00;;;12.20;;
77085;SDS011;66014;53.134;18.006;2023-11-18T01:11:19;27.90;;;12.40;;
77085;SDS011;66014;53.134;18.006;2023-11-18T01:13:48;26.60;;;12.90;;
77085;SDS011;66014;53.134;18.006;2023-11-18T01:16:15;29.50;;;13.50;;
77085;SDS011;66014;53.134;18.006;2023-11-18T01:18:41;28.80;;;12.80;;
77085;SDS011;66014;53.134;18.006;2023-11-18T01:35:23;26.50;;;13.10;;
77085;SDS011;66014;53.134;18.006;2023-11-18T01:37:53;29.60;;;13.40;;
77085;SDS011;66014;53.134;18.006;2023-11-18T01:42:49;27.40;;;12.60;;
77085;SDS011;66014;53.134;18.006;2023-11-18T01:45:15;32.10;;;14.00;;
77085;SDS011;66014;53.134;18.006;2023-11-18T01:47:45;27.80;;;13.70;;
77085;SDS011;66014;53.134;18.006;2023-11-18T01:50:15;27.50;;;12.50;;
77085;SDS011;66014;53.134;18.006;2023-11-18T01:52:43;30.10;;;14.30;;
77085;SDS011;66014;53.134;18.006;2023-11-18T01:55:10;29.40;;;14.10;;
77085;SDS011;66014;53.134;18.006;2023-11-18T01:57:39;31.00;;;14.00;;
77085;SDS011;66014;53.134;18.006;2023-11-18T02:00:37;32.50;;;14.60;;
77085;SDS011;66014;53.134;18.006;2023-11-18T02:03:05;32.80;;;15.50;;
77085;SDS011;66014;53.134;18.006;2023-11-18T02:05:32;26.80;;;14.50;;
77085;SDS011;66014;53.134;18.006;2023-11-18T02:08:01;28.20;;;13.80;;
77085;SDS011;66014;53.134;18.006;2023-11-18T02:10:36;26.60;;;12.90;;
77085;SDS011;66014;53.134;18.006;2023-11-18T02:13:15;29.40;;;13.90;;
77085;SDS011;66014;53.134;18.006;2023-11-18T02:15:52;38.00;;;14.30;;
77085;SDS011;66014;53.134;18.006;2023-11-18T02:18:26;26.50;;;12.50;;
77085;SDS011;66014;53.134;18.006;2023-11-18T02:20:57;26.40;;;12.80;;
77085;SDS011;66014;53.134;18.006;2023-11-18T02:23:25;31.60;;;14.40;;
77085;SDS011;66014;53.134;18.006;2023-11-18T02:25:55;27.50;;;13.20;;
77085;SDS011;66014;53.134;18.006;2023-11-18T02:28:21;26.90;;;13.30;;
77085;SDS011;66014;53.134;18.006;2023-11-18T02:30:47;29.50;;;13.40;;
77085;SDS011;66014;53.134;18.006;2023-11-18T02:33:22;28.90;;;12.90;;
77085;SDS011;66014;53.134;18.006;2023-11-18T02:36:05;24.40;;;12.70;;
77085;SDS011;66014;53.134;18.006;2023-11-18T02:38:46;28.10;;;13.50;;
77085;SDS011;66014;53.134;18.006;2023-11-18T02:41:15;29.10;;;13.30;;
77085;SDS011;66014;53.134;18.006;2023-11-18T02:43:44;29.00;;;13.00;;
77085;SDS011;66014;53.134;18.006;2023-11-18T02:46:38;30.20;;;13.70;;
77085;SDS011;66014;53.134;18.006;2023-11-18T02:49:05;29.20;;;13.10;;
77085;SDS011;66014;53.134;18.006;2023-11-18T02:51:31;29.00;;;12.70;;
77085;SDS011;66014;53.134;18.006;2023-11-18T03:05:37;27.00;;;11.40;;
77085;SDS011;66014;53.134;18.006;2023-11-18T03:08:04;27.70;;;11.90;;
77085;SDS011;66014;53.134;18.006;2023-11-18T03:10:32;29.50;;;13.20;;
77085;SDS011;66014;53.134;18.006;2023-11-18T03:13:00;29.20;;;13.40;;
77085;SDS011;66014;53.134;18.006;2023-11-18T03:15:27;30.50;;;14.50;;
77085;SDS011;66014;53.134;18.006;2023-11-18T03:17:54;26.90;;;12.70;;
77085;SDS011;66014;53.134;18.006;2023-11-18T03:20:20;28.40;;;12.90;;
77085;SDS011;66014;53.134;18.006;2023-11-18T03:23:03;28.10;;;13.10;;
77085;SDS011;66014;53.134;18.006;2023-11-18T03:25:28;31.20;;;13.90;;
77085;SDS011;66014;53.134;18.006;2023-11-18T03:27:54;29.80;;;13.40;;
77085;SDS011;66014;53.134;18.006;2023-11-18T03:30:20;26.60;;;13.00;;
77085;SDS011;66014;53.134;18.006;2023-11-18T03:32:47;28.90;;;13.20;;
77085;SDS011;66014;53.134;18.006;2023-11-18T03:35:13;28.20;;;13.50;;
77085;SDS011;66014;53.134;18.006;2023-11-18T03:37:40;26.70;;;13.20;;
77085;SDS011;66014;53.134;18.006;2023-11-18T03:40:07;27.50;;;12.10;;
77085;SDS011;66014;53.134;18.006;2023-11-18T03:42:41;28.60;;;13.60;;
77085;SDS011;66014;53.134;18.006;2023-11-18T03:45:07;35.00;;;14.40;;
77085;SDS011;66014;53.134;18.006;2023-11-18T03:47:35;28.50;;;13.20;;
77085;SDS011;66014;53.134;18.006;2023-11-18T03:50:01;28.10;;;12.90;;
77085;SDS011;66014;53.134;18.006;2023-11-18T03:57:33;30.40;;;12.80;;
77085;SDS011;66014;53.134;18.006;2023-11-18T03:59:59;30.70;;;14.40;;
77085;SDS011;66014;53.134;18.006;2023-11-18T04:02:25;26.70;;;12.20;;
77085;SDS011;66014;53.134;18.006;2023-11-18T04:04:51;28.00;;;13.30;;
77085;SDS011;66014;53.134;18.006;2023-11-18T04:07:18;32.50;;;12.90;;
77085;SDS011;66014;53.134;18.006;2023-11-18T04:09:44;32.50;;;14.60;;
77085;SDS011;66014;53.134;18.006;2023-11-18T04:15:24;28.60;;;13.10;;
77085;SDS011;66014;53.134;18.006;2023-11-18T04:17:52;46.30;;;20.90;;
77085;SDS011;66014;53.134;18.006;2023-11-18T04:20:18;69.40;;;28.30;;
77085;SDS011;66014;53.134;18.006;2023-11-18T04:23:47;62.40;;;35.10;;
77085;SDS011;66014;53.134;18.006;2023-11-18T04:26:13;34.60;;;17.40;;
77085;SDS011;66014;53.134;18.006;2023-11-18T04:28:39;30.90;;;14.60;;
77085;SDS011;66014;53.134;18.006;2023-11-18T04:31:05;33.70;;;15.40;;
77085;SDS011;66014;53.134;18.006;2023-11-18T04:33:31;38.60;;;19.30;;
77085;SDS011;66014;53.134;18.006;2023-11-18T04:36:00;34.70;;;16.10;;
77085;SDS011;66014;53.134;18.006;2023-11-18T04:38:27;31.20;;;14.50;;
77085;SDS011;66014;53.134;18.006;2023-11-18T04:40:53;30.70;;;15.70;;
77085;SDS011;66014;53.134;18.006;2023-11-18T04:43:22;33.20;;;14.90;;
77085;SDS011;66014;53.134;18.006;2023-11-18T04:45:49;33.90;;;13.90;;
77085;SDS011;66014;53.134;18.006;2023-11-18T04:48:15;35.00;;;16.40;;
77085;SDS011;66014;53.134;18.006;2023-11-18T04:50:41;36.70;;;15.90;;
77085;SDS011;66014;53.134;18.006;2023-11-18T04:53:08;34.40;;;15.20;;
77085;SDS011;66014;53.134;18.006;2023-11-18T04:55:36;33.40;;;15.50;;
77085;SDS011;66014;53.134;18.006;2023-11-18T04:58:03;33.40;;;15.20;;
77085;SDS011;66014;53.134;18.006;2023-11-18T05:00:31;31.70;;;15.30;;
77085;SDS011;66014;53.134;18.006;2023-11-18T05:03:04;29.40;;;15.00;;
77085;SDS011;66014;53.134;18.006;2023-11-18T05:05:35;25.70;;;13.00;;
77085;SDS011;66014;53.134;18.006;2023-11-18T05:08:18;29.20;;;12.90;;
77085;SDS011;66014;53.134;18.006;2023-11-18T05:10:49;29.40;;;14.20;;
77085;SDS011;66014;53.134;18.006;2023-11-18T05:15:45;32.00;;;15.70;;
77085;SDS011;66014;53.134;18.006;2023-11-18T05:18:30;41.90;;;19.20;;
77085;SDS011;66014;53.134;18.006;2023-11-18T05:21:02;31.80;;;16.50;;
77085;SDS011;66014;53.134;18.006;2023-11-18T05:23:47;42.50;;;20.70;;
77085;SDS011;66014;53.134;18.006;2023-11-18T05:26:41;30.90;;;15.00;;
77085;SDS011;66014;53.134;18.006;2023-11-18T05:29:09;33.60;;;17.20;;
77085;SDS011;66014;53.134;18.006;2023-11-18T05:31:35;41.20;;;19.20;;
77085;SDS011;66014;53.134;18.006;2023-11-18T05:34:02;41.50;;;19.50;;
77085;SDS011;66014;53.134;18.006;2023-11-18T05:36:28;37.00;;;17.50;;
77085;SDS011;66014;53.134;18.006;2023-11-18T05:39:06;32.90;;;16.00;;
77085;SDS011;66014;53.134;18.006;2023-11-18T05:41:34;30.50;;;16.20;;
77085;SDS011;66014;53.134;18.006;2023-11-18T05:44:00;33.70;;;16.30;;
77085;SDS011;66014;53.134;18.006;2023-11-18T05:46:27;34.20;;;16.70;;
77085;SDS011;66014;53.134;18.006;2023-11-18T05:49:05;32.40;;;15.20;;
77085;SDS011;66014;53.134;18.006;2023-11-18T05:51:32;36.10;;;16.70;;
77085;SDS011;66014;53.134;18.006;2023-11-18T05:53:58;27.90;;;13.60;;
77085;SDS011;66014;53.134;18.006;2023-11-18T05:56:25;28.20;;;13.40;;
77085;SDS011;66014;53.134;18.006;2023-11-18T05:58:52;34.40;;;15.80;;
77085;SDS011;66014;53.134;18.006;2023-11-18T06:01:21;33.60;;;15.40;;
77085;SDS011;66014;53.134;18.006;2023-11-18T06:03:47;30.10;;;14.80;;
77085;SDS011;66014;53.134;18.006;2023-11-18T06:06:36;26.10;;;12.70;;
77085;SDS011;66014;53.134;18.006;2023-11-18T06:09:06;32.40;;;15.00;;
77085;SDS011;66014;53.134;18.006;2023-11-18T06:18:31;50.40;;;22.50;;
77085;SDS011;66014;53.134;18.006;2023-11-18T06:20:58;52.00;;;25.40;;
77085;SDS011;66014;53.134;18.006;2023-11-18T06:23:25;49.70;;;22.30;;
77085;SDS011;66014;53.134;18.006;2023-11-18T06:25:51;29.70;;;13.80;;
77085;SDS011;66014;53.134;18.006;2023-11-18T06:28:17;24.20;;;12.50;;
77085;SDS011;66014;53.134;18.006;2023-11-18T06:30:44;30.10;;;13.80;;
77085;SDS011;66014;53.134;18.006;2023-11-18T06:33:10;47.70;;;19.70;;
77085;SDS011;66014;53.134;18.006;2023-11-18T06:35:37;35.90;;;18.30;;
77085;SDS011;66014;53.134;18.006;2023-11-18T06:38:03;40.80;;;17.80;;
77085;SDS011;66014;53.134;18.006;2023-11-18T06:43:21;34.60;;;15.00;;
77085;SDS011;66014;53.134;18.006;2023-11-18T06:45:47;36.20;;;16.30;;
77085;SDS011;66014;53.134;18.006;2023-11-18T06:48:20;34.40;;;16.10;;
77085;SDS011;66014;53.134;18.006;2023-11-18T06:50:54;38.30;;;16.00;;
77085;SDS011;66014;53.134;18.006;2023-11-18T06:53:20;45.40;;;21.40;;
77085;SDS011;66014;53.134;18.006;2023-11-18T06:55:46;46.40;;;22.50;;
77085;SDS011;66014;53.134;18.006;2023-11-18T06:58:31;36.40;;;17.90;;
77085;SDS011;66014;53.134;18.006;2023-11-18T07:00:57;31.30;;;15.00;;
77085;SDS011;66014;53.134;18.006;2023-11-18T07:03:23;33.80;;;16.20;;
77085;SDS011;66014;53.134;18.006;2023-11-18T07:05:49;41.00;;;20.00;;
77085;SDS011;66014;53.134;18.006;2023-11-18T07:08:15;34.40;;;16.90;;
77085;SDS011;66014;53.134;18.006;2023-11-18T07:10:47;27.90;;;14.50;;
77085;SDS011;66014;53.134;18.006;2023-11-18T07:13:17;27.90;;;12.10;;
77085;SDS011;66014;53.134;18.006;2023-11-18T07:15:43;30.50;;;14.80;;
77085;SDS011;66014;53.134;18.006;2023-11-18T07:18:09;41.90;;;23.00;;
77085;SDS011;66014;53.134;18.006;2023-11-18T07:20:39;37.90;;;19.00;;
77085;SDS011;66014;53.134;18.006;2023-11-18T07:29:07;36.00;;;16.50;;
77085;SDS011;66014;53.134;18.006;2023-11-18T07:31:37;30.10;;;15.30;;
77085;SDS011;66014;53.134;18.006;2023-11-18T07:34:07;28.40;;;13.80;;
77085;SDS011;66014;53.134;18.006;2023-11-18T07:36:42;32.50;;;16.40;;
77085;SDS011;66014;53.134;18.006;2023-11-18T07:39:12;28.20;;;13.70;;
77085;SDS011;66014;53.134;18.006;2023-11-18T07:41:42;29.30;;;14.60;;
77085;SDS011;66014;53.134;18.006;2023-11-18T07:44:08;30.30;;;14.00;;
77085;SDS011;66014;53.134;18.006;2023-11-18T07:46:42;30.30;;;14.10;;
77085;SDS011;66014;53.134;18.006;2023-11-18T07:49:24;30.40;;;14.10;;
77085;SDS011;66014;53.134;18.006;2023-11-18T07:51:52;29.90;;;13.10;;
77085;SDS011;66014;53.134;18.006;2023-11-18T07:54:19;26.50;;;12.30;;
77085;SDS011;66014;53.134;18.006;2023-11-18T07:56:46;25.50;;;12.80;;
77085;SDS011;66014;53.134;18.006;2023-11-18T07:59:13;28.10;;;13.40;;
77085;SDS011;66014;53.134;18.006;2023-11-18T08:01:42;29.50;;;13.60;;
77085;SDS011;66014;53.134;18.006;2023-11-18T08:04:36;24.80;;;11.90;;
77085;SDS011;66014;53.134;18.006;2023-11-18T08:07:03;25.80;;;10.40;;
77085;SDS011;66014;53.134;18.006;2023-11-18T08:09:36;24.40;;;11.80;;
77085;SDS011;66014;53.134;18.006;2023-11-18T08:12:05;27.10;;;11.90;;
77085;SDS011;66014;53.134;18.006;2023-11-18T08:15:24;24.40;;;11.10;;
77085;SDS011;66014;53.134;18.006;2023-11-18T08:17:53;23.20;;;10.40;;
77085;SDS011;66014;53.134;18.006;2023-11-18T08:20:19;20.20;;;10.20;;
77085;SDS011;66014;53.134;18.006;2023-11-18T08:22:51;22.80;;;11.10;;
77085;SDS011;66014;53.134;18.006;2023-11-18T08:25:18;22.20;;;10.70;;
77085;SDS011;66014;53.134;18.006;2023-11-18T08:27:45;25.20;;;12.70;;
77085;SDS011;66014;53.134;18.006;2023-11-18T08:30:14;28.70;;;14.60;;
77085;SDS011;66014;53.134;18.006;2023-11-18T08:32:47;22.80;;;13.10;;
77085;SDS011;66014;53.134;18.006;2023-11-18T08:35:14;29.10;;;16.20;;
77085;SDS011;66014;53.134;18.006;2023-11-18T08:37:47;34.10;;;17.00;;
77085;SDS011;66014;53.134;18.006;2023-11-18T08:43:08;40.20;;;24.20;;
77085;SDS011;66014;53.134;18.006;2023-11-18T08:45:44;31.60;;;17.10;;
77085;SDS011;66014;53.134;18.006;2023-11-18T08:48:10;26.70;;;15.10;;
77085;SDS011;66014;53.134;18.006;2023-11-18T08:50:37;26.20;;;14.10;;
77085;SDS011;66014;53.134;18.006;2023-11-18T08:53:21;22.80;;;11.90;;
77085;SDS011;66014;53.134;18.006;2023-11-18T08:55:52;29.30;;;13.90;;
77085;SDS011;66014;53.134;18.006;2023-11-18T08:58:20;25.30;;;13.10;;
77085;SDS011;66014;53.134;18.006;2023-11-18T09:00:55;24.20;;;11.60;;
77085;SDS011;66014;53.134;18.006;2023-11-18T09:03:34;22.30;;;11.40;;
77085;SDS011;66014;53.134;18.006;2023-11-18T09:06:01;26.30;;;13.80;;
77085;SDS011;66014;53.134;18.006;2023-11-18T09:11:07;55.10;;;35.70;;
77085;SDS011;66014;53.134;18.006;2023-11-18T09:13:37;32.30;;;22.10;;
77085;SDS011;66014;53.134;18.006;2023-11-18T09:16:05;25.20;;;15.10;;
77085;SDS011;66014;53.134;18.006;2023-11-18T09:18:36;25.30;;;13.60;;
77085;SDS011;66014;53.134;18.006;2023-11-18T09:21:05;23.10;;;12.80;;
77085;SDS011;66014;53.134;18.006;2023-11-18T09:23:33;20.00;;;11.60;;
77085;SDS011;66014;53.134;18.006;2023-11-18T09:26:01;29.00;;;13.80;;
77085;SDS011;66014;53.134;18.006;2023-11-18T09:28:28;24.60;;;13.00;;
77085;SDS011;66014;53.134;18.006;2023-11-18T09:30:56;28.60;;;14.10;;
77085;SDS011;66014;53.134;18.006;2023-11-18T09:33:24;23.50;;;13.20;;
77085;SDS011;66014;53.134;18.006;2023-11-18T09:35:55;30.50;;;13.80;;
77085;SDS011;66014;53.134;18.006;2023-11-18T09:38:26;25.70;;;13.70;;
77085;SDS011;66014;53.134;18.006;2023-11-18T09:40:57;38.80;;;18.50;;
77085;SDS011;66014;53.134;18.006;2023-11-18T09:43:31;26.90;;;14.30;;
77085;SDS011;66014;53.134;18.006;2023-11-18T09:46:03;33.70;;;19.50;;
77085;SDS011;66014;53.134;18.006;2023-11-18T09:48:44;30.50;;;16.30;;
77085;SDS011;66014;53.134;18.006;2023-11-18T09:53:52;30.10;;;15.70;;
77085;SDS011;66014;53.134;18.006;2023-11-18T09:56:23;27.20;;;14.50;;
77085;SDS011;66014;53.134;18.006;2023-11-18T10:01:57;48.10;;;23.30;;
77085;SDS011;66014;53.134;18.006;2023-11-18T10:04:24;31.60;;;15.70;;
77085;SDS011;66014;53.134;18.006;2023-11-18T10:06:54;22.80;;;12.90;;
77085;SDS011;66014;53.134;18.006;2023-11-18T10:09:26;28.70;;;16.00;;
77085;SDS011;66014;53.134;18.006;2023-11-18T10:12:09;25.70;;;12.30;;
77085;SDS011;66014;53.134;18.006;2023-11-18T10:14:40;18.90;;;9.70;;
77085;SDS011;66014;53.134;18.006;2023-11-18T10:17:09;20.60;;;11.10;;
77085;SDS011;66014;53.134;18.006;2023-11-18T10:22:38;12.20;;;7.10;;
77085;SDS011;66014;53.134;18.006;2023-11-18T10:25:07;20.70;;;12.70;;
77085;SDS011;66014;53.134;18.006;2023-11-18T10:27:34;27.40;;;17.80;;
77085;SDS011;66014;53.134;18.006;2023-11-18T10:30:04;12.80;;;8.20;;
77085;SDS011;66014;53.134;18.006;2023-11-18T10:33:00;15.10;;;9.10;;
77085;SDS011;66014;53.134;18.006;2023-11-18T10:35:32;18.90;;;10.40;;
77085;SDS011;66014;53.134;18.006;2023-11-18T10:38:02;16.00;;;9.30;;
77085;SDS011;66014;53.134;18.006;2023-11-18T10:40:32;14.80;;;9.30;;
77085;SDS011;66014;53.134;18.006;2023-11-18T10:43:05;16.50;;;9.80;;
77085;SDS011;66014;53.134;18.006;2023-11-18T10:45:36;21.00;;;10.70;;
77085;SDS011;66014;53.134;18.006;2023-11-18T10:48:07;18.30;;;10.40;;
77085;SDS011;66014;53.134;18.006;2023-11-18T10:50:34;17.90;;;9.20;;
77085;SDS011;66014;53.134;18.006;2023-11-18T10:53:01;12.90;;;7.10;;
77085;SDS011;66014;53.134;18.006;2023-11-18T10:55:38;13.00;;;6.80;;
77085;SDS011;66014;53.134;18.006;2023-11-18T10:58:06;11.70;;;12.40;;
77085;SDS011;66014;53.134;18.006;2023-11-18T11:00:45;15.20;;;7.90;;
77085;SDS011;66014;53.134;18.006;2023-11-18T11:03:15;11.30;;;6.50;;
77085;SDS011;66014;53.134;18.006;2023-11-18T11:05:47;11.00;;;6.90;;
77085;SDS011;66014;53.134;18.006;2023-11-18T11:08:45;12.20;;;6.90;;
77085;SDS011;66014;53.134;18.006;2023-11-18T11:11:12;17.30;;;9.00;;
77085;SDS011;66014;53.134;18.006;2023-11-18T11:13:44;18.00;;;9.50;;
77085;SDS011;66014;53.134;18.006;2023-11-18T11:20:11;12.70;;;7.10;;
77085;SDS011;66014;53.134;18.006;2023-11-18T11:23:07;14.80;;;6.10;;
77085;SDS011;66014;53.134;18.006;2023-11-18T11:25:55;9.80;;;6.20;;
77085;SDS011;66014;53.134;18.006;2023-11-18T11:31:39;13.50;;;7.50;;
77085;SDS011;66014;53.134;18.006;2023-11-18T11:39:19;13.70;;;6.80;;
77085;SDS011;66014;53.134;18.006;2023-11-18T11:42:03;15.30;;;8.40;;
77085;SDS011;66014;53.134;18.006;2023-11-18T11:44:52;13.50;;;7.50;;
77085;SDS011;66014;53.134;18.006;2023-11-18T11:47:20;12.20;;;7.80;;
77085;SDS011;66014;53.134;18.006;2023-11-18T11:49:55;13.70;;;8.10;;
77085;SDS011;66014;53.134;18.006;2023-11-18T11:52:33;14.70;;;8.40;;
77085;SDS011;66014;53.134;18.006;2023-11-18T11:55:09;16.30;;;9.00;;
77085;SDS011;66014;53.134;18.006;2023-11-18T11:57:39;14.60;;;8.60;;
77085;SDS011;66014;53.134;18.006;2023-11-18T12:00:09;18.40;;;9.70;;
77085;SDS011;66014;53.134;18.006;2023-11-18T12:02:48;15.30;;;8.80;;
77085;SDS011;66014;53.134;18.006;2023-11-18T12:05:18;16.50;;;9.00;;
77085;SDS011;66014;53.134;18.006;2023-11-18T12:08:08;21.70;;;11.90;;
77085;SDS011;66014;53.134;18.006;2023-11-18T12:10:39;18.90;;;9.20;;
77085;SDS011;66014;53.134;18.006;2023-11-18T12:13:23;19.90;;;9.80;;
77085;SDS011;66014;53.134;18.006;2023-11-18T12:16:06;18.70;;;11.70;;
77085;SDS011;66014;53.134;18.006;2023-11-18T12:23:02;24.10;;;12.10;;
77085;SDS011;66014;53.134;18.006;2023-11-18T12:25:31;31.10;;;15.70;;
77085;SDS011;66014;53.134;18.006;2023-11-18T12:28:00;22.40;;;11.70;;
77085;SDS011;66014;53.134;18.006;2023-11-18T12:50:40;20.30;;;9.30;;
77085;SDS011;66014;53.134;18.006;2023-11-18T12:53:10;14.90;;;8.40;;
77085;SDS011;66014;53.134;18.006;2023-11-18T12:58:46;19.10;;;9.20;;
77085;SDS011;66014;53.134;18.006;2023-11-18T13:01:14;18.60;;;9.40;;
77085;SDS011;66014;53.134;18.006;2023-11-18T13:03:42;19.40;;;9.80;;
77085;SDS011;66014;53.134;18.006;2023-11-18T13:10:02;16.90;;;8.80;;
77085;SDS011;66014;53.134;18.006;2023-11-18T13:12:30;17.60;;;9.20;;
77085;SDS011;66014;53.134;18.006;2023-11-18T13:18:44;20.40;;;10.10;;
77085;SDS011;66014;53.134;18.006;2023-11-18T13:24:08;44.20;;;22.40;;
77085;SDS011;66014;53.134;18.006;2023-11-18T13:26:35;19.40;;;9.30;;
77085;SDS011;66014;53.134;18.006;2023-11-18T13:32:46;27.50;;;10.70;;
77085;SDS011;66014;53.134;18.006;2023-11-18T13:43:04;18.50;;;10.10;;
77085;SDS011;66014;53.134;18.006;2023-11-18T13:49:09;19.80;;;10.30;;
77085;SDS011;66014;53.134;18.006;2023-11-18T13:51:41;19.60;;;10.00;;
77085;SDS011;66014;53.134;18.006;2023-11-18T13:54:33;16.10;;;8.30;;
77085;SDS011;66014;53.134;18.006;2023-11-18T13:57:11;18.60;;;9.60;;
77085;SDS011;66014;53.134;18.006;2023-11-18T13:59:39;23.40;;;11.80;;
77085;SDS011;66014;53.134;18.006;2023-11-18T14:02:28;23.90;;;13.40;;
77085;SDS011;66014;53.134;18.006;2023-11-18T14:05:57;16.00;;;8.90;;
77085;SDS011;66014;53.134;18.006;2023-11-18T14:08:31;20.20;;;10.20;;
77085;SDS011;66014;53.134;18.006;2023-11-18T14:10:58;23.50;;;11.70;;
77085;SDS011;66014;53.134;18.006;2023-11-18T14:13:24;21.90;;;12.20;;
77085;SDS011;66014;53.134;18.006;2023-11-18T14:15:57;23.80;;;11.20;;
77085;SDS011;66014;53.134;18.006;2023-11-18T14:18:38;20.80;;;10.70;;
77085;SDS011;66014;53.134;18.006;2023-11-18T14:21:07;19.40;;;10.30;;
77085;SDS011;66014;53.134;18.006;2023-11-18T14:23:34;21.50;;;10.70;;
77085;SDS011;66014;53.134;18.006;2023-11-18T14:26:00;19.70;;;10.80;;
77085;SDS011;66014;53.134;18.006;2023-11-18T14:28:33;21.40;;;10.20;;
77085;SDS011;66014;53.134;18.006;2023-11-18T14:31:01;21.10;;;10.10;;
77085;SDS011;66014;53.134;18.006;2023-11-18T14:33:33;20.30;;;10.40;;
77085;SDS011;66014;53.134;18.006;2023-11-18T14:36:00;23.20;;;12.40;;
77085;SDS011;66014;53.134;18.006;2023-11-18T14:38:33;26.00;;;12.90;;
77085;SDS011;66014;53.134;18.006;2023-11-18T14:41:15;25.10;;;11.90;;
77085;SDS011;66014;53.134;18.006;2023-11-18T14:47:13;27.40;;;13.50;;
77085;SDS011;66014;53.134;18.006;2023-11-18T14:50:41;26.50;;;12.00;;
77085;SDS011;66014;53.134;18.006;2023-11-18T14:54:07;25.90;;;11.70;;
77085;SDS011;66014;53.134;18.006;2023-11-18T15:03:51;31.10;;;15.90;;
77085;SDS011;66014;53.134;18.006;2023-11-18T15:06:33;24.80;;;12.60;;
77085;SDS011;66014;53.134;18.006;2023-11-18T15:09:09;23.40;;;12.40;;
77085;SDS011;66014;53.134;18.006;2023-11-18T15:11:43;27.90;;;12.30;;
77085;SDS011;66014;53.134;18.006;2023-11-18T19:32:21;38.20;;;16.50;;
77085;SDS011;66014;53.134;18.006;2023-11-18T19:34:49;38.90;;;15.30;;
77085;SDS011;66014;53.134;18.006;2023-11-18T19:37:16;37.30;;;18.30;;
77085;SDS011;66014;53.134;18.006;2023-11-18T19:39:42;44.00;;;19.20;;
77085;SDS011;66014;53.134;18.006;2023-11-18T19:42:09;36.20;;;17.80;;
77085;SDS011;66014;53.134;18.006;2023-11-18T19:44:35;37.40;;;17.40;;
77085;SDS011;66014;53.134;18.006;2023-11-18T19:47:03;35.60;;;17.70;;
77085;SDS011;66014;53.134;18.006;2023-11-18T19:49:29;37.80;;;18.60;;
77085;SDS011;66014;53.134;18.006;2023-11-18T19:51:59;28.50;;;13.00;;
77085;SDS011;66014;53.134;18.006;2023-11-18T19:54:25;27.80;;;13.10;;
77085;SDS011;66014;53.134;18.006;2023-11-18T19:56:57;31.70;;;16.00;;
77085;SDS011;66014;53.134;18.006;2023-11-18T19:59:23;23.00;;;10.50;;
77085;SDS011;66014;53.134;18.006;2023-11-18T20:01:50;32.20;;;13.30;;
77085;SDS011;66014;53.134;18.006;2023-11-18T20:04:21;31.10;;;15.20;;
77085;SDS011;66014;53.134;18.006;2023-11-18T20:06:47;23.90;;;12.80;;
77085;SDS011;66014;53.134;18.006;2023-11-18T20:09:13;31.10;;;16.30;;
77085;SDS011;66014;53.134;18.006;2023-11-18T20:11:52;27.10;;;13.40;;
77085;SDS011;66014;53.134;18.006;2023-11-18T20:14:20;31.30;;;15.50;;
77085;SDS011;66014;53.134;18.006;2023-11-18T20:16:48;25.60;;;11.80;;
77085;SDS011;66014;53.134;18.006;2023-11-18T20:19:15;32.40;;;15.80;;
77085;SDS011;66014;53.134;18.006;2023-11-18T20:21:41;31.00;;;14.10;;
77085;SDS011;66014;53.134;18.006;2023-11-18T20:24:08;34.00;;;14.80;;
77085;SDS011;66014;53.134;18.006;2023-11-18T20:26:37;49.60;;;22.20;;
77085;SDS011;66014;53.134;18.006;2023-11-18T20:29:03;37.50;;;18.60;;
77085;SDS011;66014;53.134;18.006;2023-11-18T20:31:30;33.70;;;15.10;;
77085;SDS011;66014;53.134;18.006;2023-11-18T20:33:56;35.90;;;16.70;;
77085;SDS011;66014;53.134;18.006;2023-11-18T20:36:22;34.50;;;17.80;;
77085;SDS011;66014;53.134;18.006;2023-11-18T20:38:48;45.20;;;19.40;;
77085;SDS011;66014;53.134;18.006;2023-11-18T20:41:14;43.10;;;20.10;;
77085;SDS011;66014;53.134;18.006;2023-11-18T20:43:41;41.50;;;18.80;;
77085;SDS011;66014;53.134;18.006;2023-11-18T20:46:09;33.80;;;16.00;;
77085;SDS011;66014;53.134;18.006;2023-11-18T20:48:38;36.60;;;17.00;;
77085;SDS011;66014;53.134;18.006;2023-11-18T20:51:04;36.10;;;18.70;;
77085;SDS011;66014;53.134;18.006;2023-11-18T20:53:32;33.00;;;16.80;;
77085;SDS011;66014;53.134;18.006;2023-11-18T20:56:00;33.50;;;16.30;;
77085;SDS011;66014;53.134;18.006;2023-11-18T20:58:27;36.20;;;16.90;;
77085;SDS011;66014;53.134;18.006;2023-11-18T21:00:53;30.50;;;14.30;;
77085;SDS011;66014;53.134;18.006;2023-11-18T21:03:20;24.30;;;11.00;;
77085;SDS011;66014;53.134;18.006;2023-11-18T21:05:46;29.80;;;14.00;;
77085;SDS011;66014;53.134;18.006;2023-11-18T21:08:14;36.70;;;17.20;;
77085;SDS011;66014;53.134;18.006;2023-11-18T21:10:42;43.40;;;19.30;;
77085;SDS011;66014;53.134;18.006;2023-11-18T21:13:10;35.60;;;15.90;;
77085;SDS011;66014;53.134;18.006;2023-11-18T21:15:36;24.10;;;11.40;;
77085;SDS011;66014;53.134;18.006;2023-11-18T21:18:04;36.90;;;16.90;;
77085;SDS011;66014;53.134;18.006;2023-11-18T21:20:33;35.00;;;16.70;;